sensor_id;sensor_type;location;lat;lon;timestamp;P1;durP1;ratioP1;P2;durP2;ratioP2
4519;SDS011;2272;49.226;8.108;2023-03-15T00:02:21;7.43;;;1.40;;
4519;SDS011;2272;49.226;8.108;2023-03-15T00:04:47;1.83;;;1.20;;
4519;SDS011;2272;49.226;8.108;2023-03-15T00:07:15;1.30;;;1.20;;
4519;SDS011;2272;49.226;8.108;2023-03-15T00:09:42;8.73;;;1.77;;
4519;SDS011;2272;49.226;8.108;2023-03-15T00:12:09;1.30;;;1.30;;
4519;SDS011;2272;49.226;8.108;2023-03-15T00:14:36;7.90;;;1.70;;
4519;SDS011;2272;49.226;8.108;2023-03-15T00:17:02;2.17;;;1.47;;
4519;SDS011;2272;49.226;8.108;2023-03-15T00:19:29;1.33;;;1.10;;
4519;SDS011;2272;49.226;8.108;2023-03-15T00:21:56;2.30;;;1.57;;
4519;SDS011;2272;49.226;8.108;2023-03-15T00:24:24;1.13;;;1.13;;
4519;SDS011;2272;49.226;8.108;2023-03-15T00:26:50;1.90;;;0.90;;
4519;SDS011;2272;49.226;8.108;2023-03-15T00:29:17;2.50;;;1.37;;
4519;SDS011;2272;49.226;8.108;2023-03-15T00:31:44;7.30;;;1.23;;
4519;SDS011;2272;49.226;8.108;2023-03-15T00:34:10;4.57;;;1.63;;
4519;SDS011;2272;49.226;8.108;2023-03-15T00:36:37;2.73;;;1.50;;
4519;SDS011;2272;49.226;8.108;2023-03-15T00:39:07;3.30;;;2.00;;
4519;SDS011;2272;49.226;8.108;2023-03-15T00:41:36;1.30;;;1.00;;
4519;SDS011;2272;49.226;8.108;2023-03-15T00:44:02;8.90;;;1.30;;
4519;SDS011;2272;49.226;8.108;2023-03-15T00:46:29;1.80;;;1.20;;
4519;SDS011;2272;49.226;8.108;2023-03-15T00:48:56;5.77;;;1.67;;
4519;SDS011;2272;49.226;8.108;2023-03-15T00:51:23;1.30;;;1.20;;
4519;SDS011;2272;49.226;8.108;2023-03-15T00:53:50;1.70;;;1.60;;
4519;SDS011;2272;49.226;8.108;2023-03-15T00:56:18;1.67;;;1.57;;
4519;SDS011;2272;49.226;8.108;2023-03-15T00:58:48;1.53;;;1.43;;
4519;SDS011;2272;49.226;8.108;2023-03-15T01:01:18;5.53;;;1.20;;
4519;SDS011;2272;49.226;8.108;2023-03-15T01:03:46;3.50;;;1.27;;
4519;SDS011;2272;49.226;8.108;2023-03-15T01:06:13;2.17;;;1.53;;
4519;SDS011;2272;49.226;8.108;2023-03-15T01:08:41;3.03;;;1.60;;
4519;SDS011;2272;49.226;8.108;2023-03-15T01:11:09;2.30;;;1.90;;
4519;SDS011;2272;49.226;8.108;2023-03-15T01:13:39;1.50;;;1.40;;
4519;SDS011;2272;49.226;8.108;2023-03-15T01:16:07;3.17;;;2.17;;
4519;SDS011;2272;49.226;8.108;2023-03-15T01:18:35;2.20;;;1.60;;
4519;SDS011;2272;49.226;8.108;2023-03-15T01:21:02;1.90;;;1.80;;
4519;SDS011;2272;49.226;8.108;2023-03-15T01:23:31;3.70;;;2.30;;
4519;SDS011;2272;49.226;8.108;2023-03-15T01:25:58;5.60;;;2.70;;
4519;SDS011;2272;49.226;8.108;2023-03-15T01:28:25;2.17;;;1.97;;
4519;SDS011;2272;49.226;8.108;2023-03-15T01:30:52;4.63;;;2.00;;
4519;SDS011;2272;49.226;8.108;2023-03-15T01:33:21;1.70;;;1.60;;
4519;SDS011;2272;49.226;8.108;2023-03-15T01:35:48;3.77;;;2.67;;
4519;SDS011;2272;49.226;8.108;2023-03-15T01:38:23;5.43;;;2.37;;
4519;SDS011;2272;49.226;8.108;2023-03-15T01:40:50;2.33;;;1.83;;
4519;SDS011;2272;49.226;8.108;2023-03-15T01:43:17;1.83;;;1.73;;
4519;SDS011;2272;49.226;8.108;2023-03-15T01:46:02;8.07;;;2.60;;
4519;SDS011;2272;49.226;8.108;2023-03-15T01:48:42;8.77;;;2.33;;
4519;SDS011;2272;49.226;8.108;2023-03-15T01:51:12;6.03;;;1.90;;
4519;SDS011;2272;49.226;8.108;2023-03-15T01:53:44;2.67;;;2.10;;
4519;SDS011;2272;49.226;8.108;2023-03-15T01:56:13;2.63;;;2.43;;
4519;SDS011;2272;49.226;8.108;2023-03-15T01:58:41;4.03;;;2.67;;
4519;SDS011;2272;49.226;8.108;2023-03-15T02:01:10;2.87;;;2.20;;
4519;SDS011;2272;49.226;8.108;2023-03-15T02:03:38;2.60;;;2.40;;
4519;SDS011;2272;49.226;8.108;2023-03-15T02:06:11;2.77;;;1.97;;
4519;SDS011;2272;49.226;8.108;2023-03-15T02:08:43;8.90;;;2.67;;
4519;SDS011;2272;49.226;8.108;2023-03-15T02:11:14;3.17;;;2.33;;
4519;SDS011;2272;49.226;8.108;2023-03-15T02:13:44;1.90;;;1.80;;
4519;SDS011;2272;49.226;8.108;2023-03-15T02:16:11;2.73;;;2.50;;
4519;SDS011;2272;49.226;8.108;2023-03-15T02:18:38;4.60;;;2.47;;
4519;SDS011;2272;49.226;8.108;2023-03-15T02:21:09;4.93;;;2.67;;
4519;SDS011;2272;49.226;8.108;2023-03-15T02:23:47;3.63;;;2.37;;
4519;SDS011;2272;49.226;8.108;2023-03-15T02:26:20;6.50;;;2.80;;
4519;SDS011;2272;49.226;8.108;2023-03-15T02:28:55;3.47;;;3.17;;
4519;SDS011;2272;49.226;8.108;2023-03-15T02:31:22;3.73;;;3.43;;
4519;SDS011;2272;49.226;8.108;2023-03-15T02:33:49;6.63;;;4.13;;
4519;SDS011;2272;49.226;8.108;2023-03-15T02:36:17;7.20;;;2.63;;
4519;SDS011;2272;49.226;8.108;2023-03-15T02:38:45;8.00;;;3.60;;
4519;SDS011;2272;49.226;8.108;2023-03-15T02:41:14;11.43;;;4.00;;
4519;SDS011;2272;49.226;8.108;2023-03-15T02:43:44;12.43;;;4.37;;
4519;SDS011;2272;49.226;8.108;2023-03-15T02:46:13;3.77;;;3.47;;
4519;SDS011;2272;49.226;8.108;2023-03-15T02:48:40;7.20;;;4.30;;
4519;SDS011;2272;49.226;8.108;2023-03-15T02:51:15;5.50;;;3.17;;
4519;SDS011;2272;49.226;8.108;2023-03-15T02:53:42;8.73;;;4.03;;
4519;SDS011;2272;49.226;8.108;2023-03-15T02:56:09;5.97;;;3.63;;
4519;SDS011;2272;49.226;8.108;2023-03-15T02:58:35;4.43;;;3.60;;
4519;SDS011;2272;49.226;8.108;2023-03-15T03:01:02;6.90;;;3.60;;
4519;SDS011;2272;49.226;8.108;2023-03-15T03:03:30;3.83;;;3.00;;
4519;SDS011;2272;49.226;8.108;2023-03-15T03:05:57;14.87;;;3.60;;
4519;SDS011;2272;49.226;8.108;2023-03-15T03:08:23;6.10;;;3.03;;
4519;SDS011;2272;49.226;8.108;2023-03-15T03:10:50;3.80;;;3.23;;
4519;SDS011;2272;49.226;8.108;2023-03-15T03:13:17;4.93;;;3.53;;
4519;SDS011;2272;49.226;8.108;2023-03-15T03:15:43;4.03;;;3.40;;
4519;SDS011;2272;49.226;8.108;2023-03-15T03:18:10;5.60;;;3.10;;
4519;SDS011;2272;49.226;8.108;2023-03-15T03:20:38;7.00;;;3.80;;
4519;SDS011;2272;49.226;8.108;2023-03-15T03:23:05;7.50;;;3.50;;
4519;SDS011;2272;49.226;8.108;2023-03-15T03:25:32;3.53;;;3.30;;
4519;SDS011;2272;49.226;8.108;2023-03-15T03:28:00;9.73;;;3.37;;
4519;SDS011;2272;49.226;8.108;2023-03-15T03:30:28;7.33;;;3.60;;
4519;SDS011;2272;49.226;8.108;2023-03-15T03:32:55;7.50;;;3.90;;
4519;SDS011;2272;49.226;8.108;2023-03-15T03:35:22;9.53;;;3.70;;
4519;SDS011;2272;49.226;8.108;2023-03-15T03:37:50;3.40;;;3.10;;
4519;SDS011;2272;49.226;8.108;2023-03-15T03:40:18;5.43;;;3.60;;
4519;SDS011;2272;49.226;8.108;2023-03-15T03:42:44;5.40;;;3.30;;
4519;SDS011;2272;49.226;8.108;2023-03-15T03:45:11;4.23;;;3.80;;
4519;SDS011;2272;49.226;8.108;2023-03-15T03:47:38;10.77;;;3.37;;
4519;SDS011;2272;49.226;8.108;2023-03-15T03:50:05;6.30;;;3.63;;
4519;SDS011;2272;49.226;8.108;2023-03-15T03:52:32;6.93;;;3.67;;
4519;SDS011;2272;49.226;8.108;2023-03-15T03:55:00;8.47;;;3.80;;
4519;SDS011;2272;49.226;8.108;2023-03-15T03:57:27;5.77;;;5.07;;
4519;SDS011;2272;49.226;8.108;2023-03-15T03:59:54;18.90;;;4.50;;
4519;SDS011;2272;49.226;8.108;2023-03-15T04:02:22;6.00;;;3.50;;
4519;SDS011;2272;49.226;8.108;2023-03-15T04:04:49;4.17;;;2.97;;
4519;SDS011;2272;49.226;8.108;2023-03-15T04:07:15;10.07;;;3.80;;
4519;SDS011;2272;49.226;8.108;2023-03-15T04:09:42;6.10;;;3.80;;
4519;SDS011;2272;49.226;8.108;2023-03-15T04:12:10;5.97;;;4.20;;
4519;SDS011;2272;49.226;8.108;2023-03-15T04:14:37;8.73;;;3.20;;
4519;SDS011;2272;49.226;8.108;2023-03-15T04:17:04;7.10;;;4.17;;
4519;SDS011;2272;49.226;8.108;2023-03-15T04:19:32;7.27;;;4.00;;
4519;SDS011;2272;49.226;8.108;2023-03-15T04:21:59;7.33;;;5.57;;
4519;SDS011;2272;49.226;8.108;2023-03-15T04:24:30;12.53;;;4.93;;
4519;SDS011;2272;49.226;8.108;2023-03-15T04:26:57;9.80;;;4.30;;
4519;SDS011;2272;49.226;8.108;2023-03-15T04:29:25;5.80;;;4.43;;
4519;SDS011;2272;49.226;8.108;2023-03-15T04:31:52;4.73;;;3.40;;
4519;SDS011;2272;49.226;8.108;2023-03-15T04:34:25;10.67;;;6.93;;
4519;SDS011;2272;49.226;8.108;2023-03-15T04:36:53;11.27;;;6.07;;
4519;SDS011;2272;49.226;8.108;2023-03-15T04:39:20;16.77;;;6.97;;
4519;SDS011;2272;49.226;8.108;2023-03-15T04:41:47;10.80;;;6.37;;
4519;SDS011;2272;49.226;8.108;2023-03-15T04:44:14;9.57;;;6.00;;
4519;SDS011;2272;49.226;8.108;2023-03-15T04:46:42;16.00;;;6.57;;
4519;SDS011;2272;49.226;8.108;2023-03-15T04:49:08;11.60;;;6.03;;
4519;SDS011;2272;49.226;8.108;2023-03-15T04:51:35;14.23;;;6.23;;
4519;SDS011;2272;49.226;8.108;2023-03-15T04:54:02;6.83;;;6.07;;
4519;SDS011;2272;49.226;8.108;2023-03-15T04:56:29;10.60;;;5.60;;
4519;SDS011;2272;49.226;8.108;2023-03-15T04:58:55;10.77;;;5.60;;
4519;SDS011;2272;49.226;8.108;2023-03-15T05:01:22;9.23;;;5.73;;
4519;SDS011;2272;49.226;8.108;2023-03-15T05:03:54;22.40;;;7.43;;
4519;SDS011;2272;49.226;8.108;2023-03-15T05:06:21;15.87;;;6.10;;
4519;SDS011;2272;49.226;8.108;2023-03-15T05:08:47;12.80;;;6.57;;
4519;SDS011;2272;49.226;8.108;2023-03-15T05:11:15;16.23;;;5.60;;
4519;SDS011;2272;49.226;8.108;2023-03-15T05:13:42;12.93;;;6.70;;
4519;SDS011;2272;49.226;8.108;2023-03-15T05:16:09;18.33;;;6.10;;
4519;SDS011;2272;49.226;8.108;2023-03-15T05:18:36;8.97;;;5.53;;
4519;SDS011;2272;49.226;8.108;2023-03-15T05:21:05;6.13;;;4.83;;
4519;SDS011;2272;49.226;8.108;2023-03-15T05:23:32;13.77;;;5.20;;
4519;SDS011;2272;49.226;8.108;2023-03-15T05:25:59;23.00;;;8.40;;
4519;SDS011;2272;49.226;8.108;2023-03-15T05:28:26;16.23;;;6.67;;
4519;SDS011;2272;49.226;8.108;2023-03-15T05:30:53;7.13;;;4.80;;
4519;SDS011;2272;49.226;8.108;2023-03-15T05:33:20;14.63;;;6.40;;
4519;SDS011;2272;49.226;8.108;2023-03-15T05:35:48;13.10;;;5.67;;
4519;SDS011;2272;49.226;8.108;2023-03-15T05:38:18;9.87;;;6.07;;
4519;SDS011;2272;49.226;8.108;2023-03-15T05:40:50;14.10;;;5.83;;
4519;SDS011;2272;49.226;8.108;2023-03-15T05:43:17;9.13;;;6.70;;
4519;SDS011;2272;49.226;8.108;2023-03-15T05:45:44;19.17;;;6.30;;
4519;SDS011;2272;49.226;8.108;2023-03-15T05:48:20;11.90;;;6.00;;
4519;SDS011;2272;49.226;8.108;2023-03-15T05:50:47;9.20;;;5.57;;
4519;SDS011;2272;49.226;8.108;2023-03-15T05:53:14;7.17;;;5.47;;
4519;SDS011;2272;49.226;8.108;2023-03-15T05:55:42;6.93;;;5.23;;
4519;SDS011;2272;49.226;8.108;2023-03-15T05:58:09;11.53;;;5.43;;
4519;SDS011;2272;49.226;8.108;2023-03-15T06:00:35;7.63;;;4.47;;
4519;SDS011;2272;49.226;8.108;2023-03-15T06:03:02;15.33;;;4.70;;
4519;SDS011;2272;49.226;8.108;2023-03-15T06:05:29;8.30;;;4.37;;
4519;SDS011;2272;49.226;8.108;2023-03-15T06:07:55;10.43;;;5.27;;
4519;SDS011;2272;49.226;8.108;2023-03-15T06:10:22;18.20;;;6.40;;
4519;SDS011;2272;49.226;8.108;2023-03-15T06:12:50;8.17;;;4.67;;
4519;SDS011;2272;49.226;8.108;2023-03-15T06:15:17;12.50;;;5.10;;
4519;SDS011;2272;49.226;8.108;2023-03-15T06:17:44;6.00;;;4.23;;
4519;SDS011;2272;49.226;8.108;2023-03-15T06:20:11;14.03;;;5.07;;
4519;SDS011;2272;49.226;8.108;2023-03-15T06:22:38;13.67;;;5.43;;
4519;SDS011;2272;49.226;8.108;2023-03-15T06:25:05;15.50;;;5.47;;
4519;SDS011;2272;49.226;8.108;2023-03-15T06:27:33;12.83;;;6.67;;
4519;SDS011;2272;49.226;8.108;2023-03-15T06:30:01;25.60;;;5.70;;
4519;SDS011;2272;49.226;8.108;2023-03-15T06:32:29;12.90;;;6.47;;
4519;SDS011;2272;49.226;8.108;2023-03-15T06:34:55;8.83;;;4.87;;
4519;SDS011;2272;49.226;8.108;2023-03-15T06:37:22;11.57;;;4.73;;
4519;SDS011;2272;49.226;8.108;2023-03-15T06:39:49;5.23;;;4.73;;
4519;SDS011;2272;49.226;8.108;2023-03-15T06:42:17;10.63;;;5.97;;
4519;SDS011;2272;49.226;8.108;2023-03-15T06:44:44;9.27;;;5.90;;
4519;SDS011;2272;49.226;8.108;2023-03-15T06:47:12;12.00;;;6.23;;
4519;SDS011;2272;49.226;8.108;2023-03-15T06:49:39;8.77;;;5.30;;
4519;SDS011;2272;49.226;8.108;2023-03-15T06:52:06;11.00;;;6.03;;
4519;SDS011;2272;49.226;8.108;2023-03-15T06:54:33;11.03;;;5.53;;
4519;SDS011;2272;49.226;8.108;2023-03-15T06:56:59;17.97;;;5.60;;
4519;SDS011;2272;49.226;8.108;2023-03-15T06:59:26;9.50;;;5.67;;
4519;SDS011;2272;49.226;8.108;2023-03-15T07:01:53;8.83;;;6.27;;
4519;SDS011;2272;49.226;8.108;2023-03-15T07:04:21;9.30;;;6.07;;
4519;SDS011;2272;49.226;8.108;2023-03-15T07:06:48;11.03;;;5.70;;
4519;SDS011;2272;49.226;8.108;2023-03-15T07:09:14;12.53;;;6.40;;
4519;SDS011;2272;49.226;8.108;2023-03-15T07:11:41;6.47;;;5.50;;
4519;SDS011;2272;49.226;8.108;2023-03-15T07:14:08;9.53;;;6.20;;
4519;SDS011;2272;49.226;8.108;2023-03-15T07:16:34;9.40;;;6.50;;
4519;SDS011;2272;49.226;8.108;2023-03-15T07:19:01;9.60;;;6.57;;
4519;SDS011;2272;49.226;8.108;2023-03-15T07:21:29;10.20;;;5.60;;
4519;SDS011;2272;49.226;8.108;2023-03-15T07:23:56;8.13;;;6.17;;
4519;SDS011;2272;49.226;8.108;2023-03-15T07:26:23;11.60;;;6.80;;
4519;SDS011;2272;49.226;8.108;2023-03-15T07:28:50;10.10;;;6.50;;
4519;SDS011;2272;49.226;8.108;2023-03-15T07:31:16;10.77;;;6.67;;
4519;SDS011;2272;49.226;8.108;2023-03-15T07:33:43;16.93;;;6.90;;
4519;SDS011;2272;49.226;8.108;2023-03-15T07:36:10;8.83;;;6.30;;
4519;SDS011;2272;49.226;8.108;2023-03-15T07:38:38;9.90;;;7.10;;
4519;SDS011;2272;49.226;8.108;2023-03-15T07:41:06;9.20;;;6.27;;
4519;SDS011;2272;49.226;8.108;2023-03-15T07:43:33;8.67;;;6.10;;
4519;SDS011;2272;49.226;8.108;2023-03-15T07:46:06;10.67;;;5.60;;
4519;SDS011;2272;49.226;8.108;2023-03-15T07:48:32;9.73;;;6.27;;
4519;SDS011;2272;49.226;8.108;2023-03-15T07:50:59;9.40;;;5.60;;
4519;SDS011;2272;49.226;8.108;2023-03-15T07:53:26;8.83;;;5.73;;
4519;SDS011;2272;49.226;8.108;2023-03-15T07:55:54;12.67;;;5.50;;
4519;SDS011;2272;49.226;8.108;2023-03-15T07:58:21;8.13;;;5.73;;
4519;SDS011;2272;49.226;8.108;2023-03-15T08:00:48;18.07;;;5.73;;
4519;SDS011;2272;49.226;8.108;2023-03-15T08:03:15;19.10;;;5.10;;
4519;SDS011;2272;49.226;8.108;2023-03-15T08:05:42;9.40;;;5.67;;
4519;SDS011;2272;49.226;8.108;2023-03-15T08:08:08;7.13;;;4.70;;
4519;SDS011;2272;49.226;8.108;2023-03-15T08:10:35;6.80;;;4.20;;
4519;SDS011;2272;49.226;8.108;2023-03-15T08:13:03;6.10;;;4.83;;
4519;SDS011;2272;49.226;8.108;2023-03-15T08:15:30;13.70;;;5.23;;
4519;SDS011;2272;49.226;8.108;2023-03-15T08:17:56;8.80;;;4.23;;
4519;SDS011;2272;49.226;8.108;2023-03-15T08:20:24;11.10;;;4.70;;
4519;SDS011;2272;49.226;8.108;2023-03-15T08:22:51;4.73;;;4.10;;
4519;SDS011;2272;49.226;8.108;2023-03-15T08:25:18;9.70;;;4.80;;
4519;SDS011;2272;49.226;8.108;2023-03-15T08:27:48;20.80;;;5.50;;
4519;SDS011;2272;49.226;8.108;2023-03-15T08:30:17;4.73;;;4.30;;
4519;SDS011;2272;49.226;8.108;2023-03-15T08:32:45;18.63;;;4.60;;
4519;SDS011;2272;49.226;8.108;2023-03-15T08:35:13;8.20;;;4.97;;
4519;SDS011;2272;49.226;8.108;2023-03-15T08:37:41;5.80;;;4.00;;
4519;SDS011;2272;49.226;8.108;2023-03-15T08:40:11;4.37;;;3.97;;
4519;SDS011;2272;49.226;8.108;2023-03-15T08:42:38;8.37;;;4.77;;
4519;SDS011;2272;49.226;8.108;2023-03-15T08:45:06;10.87;;;4.83;;
4519;SDS011;2272;49.226;8.108;2023-03-15T08:47:35;8.60;;;4.63;;
4519;SDS011;2272;49.226;8.108;2023-03-15T08:50:02;6.83;;;4.53;;
4519;SDS011;2272;49.226;8.108;2023-03-15T08:52:31;6.00;;;4.67;;
4519;SDS011;2272;49.226;8.108;2023-03-15T08:54:58;11.70;;;5.23;;
4519;SDS011;2272;49.226;8.108;2023-03-15T08:57:25;11.40;;;5.13;;
4519;SDS011;2272;49.226;8.108;2023-03-15T08:59:52;7.47;;;4.83;;
4519;SDS011;2272;49.226;8.108;2023-03-15T09:02:19;16.43;;;6.87;;
4519;SDS011;2272;49.226;8.108;2023-03-15T09:04:48;12.90;;;7.43;;
4519;SDS011;2272;49.226;8.108;2023-03-15T09:07:15;17.67;;;9.17;;
4519;SDS011;2272;49.226;8.108;2023-03-15T09:09:42;16.20;;;8.80;;
4519;SDS011;2272;49.226;8.108;2023-03-15T09:12:12;9.70;;;7.57;;
4519;SDS011;2272;49.226;8.108;2023-03-15T09:14:39;10.43;;;8.53;;
4519;SDS011;2272;49.226;8.108;2023-03-15T09:17:06;8.63;;;6.03;;
4519;SDS011;2272;49.226;8.108;2023-03-15T09:19:32;9.27;;;6.00;;
4519;SDS011;2272;49.226;8.108;2023-03-15T09:22:01;7.57;;;4.53;;
4519;SDS011;2272;49.226;8.108;2023-03-15T09:24:27;4.63;;;4.20;;
4519;SDS011;2272;49.226;8.108;2023-03-15T09:26:54;8.20;;;4.67;;
4519;SDS011;2272;49.226;8.108;2023-03-15T09:29:21;18.10;;;12.50;;
4519;SDS011;2272;49.226;8.108;2023-03-15T09:31:48;4.37;;;3.77;;
4519;SDS011;2272;49.226;8.108;2023-03-15T09:34:15;10.30;;;3.77;;
4519;SDS011;2272;49.226;8.108;2023-03-15T09:36:41;6.63;;;2.73;;
4519;SDS011;2272;49.226;8.108;2023-03-15T09:39:09;4.47;;;3.00;;
4519;SDS011;2272;49.226;8.108;2023-03-15T09:41:40;2.43;;;2.23;;
4519;SDS011;2272;49.226;8.108;2023-03-15T09:44:14;5.10;;;2.87;;
4519;SDS011;2272;49.226;8.108;2023-03-15T09:46:51;2.40;;;2.27;;
4519;SDS011;2272;49.226;8.108;2023-03-15T09:49:30;9.00;;;3.40;;
4519;SDS011;2272;49.226;8.108;2023-03-15T09:52:05;4.70;;;2.60;;
4519;SDS011;2272;49.226;8.108;2023-03-15T09:54:40;5.93;;;2.93;;
4519;SDS011;2272;49.226;8.108;2023-03-15T09:57:13;10.93;;;3.20;;
4519;SDS011;2272;49.226;8.108;2023-03-15T09:59:44;5.33;;;3.50;;
4519;SDS011;2272;49.226;8.108;2023-03-15T10:02:16;9.53;;;5.90;;
4519;SDS011;2272;49.226;8.108;2023-03-15T10:04:46;11.47;;;5.40;;
4519;SDS011;2272;49.226;8.108;2023-03-15T10:07:17;5.70;;;4.13;;
4519;SDS011;2272;49.226;8.108;2023-03-15T10:09:45;3.47;;;3.17;;
4519;SDS011;2272;49.226;8.108;2023-03-15T10:12:13;7.57;;;3.13;;
4519;SDS011;2272;49.226;8.108;2023-03-15T10:14:50;3.60;;;3.20;;
4519;SDS011;2272;49.226;8.108;2023-03-15T10:17:43;8.17;;;3.37;;
4519;SDS011;2272;49.226;8.108;2023-03-15T10:20:16;5.40;;;3.50;;
4519;SDS011;2272;49.226;8.108;2023-03-15T10:22:52;5.57;;;2.60;;
4519;SDS011;2272;49.226;8.108;2023-03-15T10:25:23;4.73;;;2.70;;
4519;SDS011;2272;49.226;8.108;2023-03-15T10:27:53;3.50;;;3.20;;
4519;SDS011;2272;49.226;8.108;2023-03-15T10:30:22;7.33;;;4.00;;
4519;SDS011;2272;49.226;8.108;2023-03-15T10:32:51;7.90;;;3.50;;
4519;SDS011;2272;49.226;8.108;2023-03-15T10:35:21;3.07;;;2.77;;
4519;SDS011;2272;49.226;8.108;2023-03-15T10:37:48;3.07;;;2.77;;
4519;SDS011;2272;49.226;8.108;2023-03-15T10:40:15;5.60;;;3.33;;
4519;SDS011;2272;49.226;8.108;2023-03-15T10:43:17;8.37;;;5.70;;
4519;SDS011;2272;49.226;8.108;2023-03-15T10:45:45;4.03;;;3.70;;
4519;SDS011;2272;49.226;8.108;2023-03-15T10:48:22;3.83;;;3.10;;
4519;SDS011;2272;49.226;8.108;2023-03-15T10:50:49;5.27;;;2.90;;
4519;SDS011;2272;49.226;8.108;2023-03-15T10:53:17;5.67;;;3.43;;
4519;SDS011;2272;49.226;8.108;2023-03-15T10:55:47;1.93;;;1.77;;
4519;SDS011;2272;49.226;8.108;2023-03-15T10:58:19;2.17;;;2.07;;
4519;SDS011;2272;49.226;8.108;2023-03-15T11:00:52;2.53;;;2.30;;
4519;SDS011;2272;49.226;8.108;2023-03-15T11:03:24;5.27;;;3.97;;
4519;SDS011;2272;49.226;8.108;2023-03-15T11:05:52;4.87;;;3.13;;
4519;SDS011;2272;49.226;8.108;2023-03-15T11:08:21;4.70;;;3.13;;
4519;SDS011;2272;49.226;8.108;2023-03-15T11:10:55;9.33;;;4.00;;
4519;SDS011;2272;49.226;8.108;2023-03-15T11:13:23;3.50;;;2.73;;
4519;SDS011;2272;49.226;8.108;2023-03-15T11:15:57;5.70;;;3.13;;
4519;SDS011;2272;49.226;8.108;2023-03-15T11:18:30;2.93;;;2.60;;
4519;SDS011;2272;49.226;8.108;2023-03-15T11:21:07;2.93;;;2.73;;
4519;SDS011;2272;49.226;8.108;2023-03-15T11:23:38;6.47;;;2.53;;
4519;SDS011;2272;49.226;8.108;2023-03-15T11:26:10;8.93;;;2.73;;
4519;SDS011;2272;49.226;8.108;2023-03-15T11:28:44;4.40;;;3.20;;
4519;SDS011;2272;49.226;8.108;2023-03-15T11:31:15;3.63;;;2.60;;
4519;SDS011;2272;49.226;8.108;2023-03-15T11:33:44;2.73;;;2.40;;
4519;SDS011;2272;49.226;8.108;2023-03-15T11:36:17;2.93;;;2.73;;
4519;SDS011;2272;49.226;8.108;2023-03-15T11:38:46;5.27;;;3.07;;
4519;SDS011;2272;49.226;8.108;2023-03-15T11:41:18;8.83;;;3.73;;
4519;SDS011;2272;49.226;8.108;2023-03-15T11:43:54;5.70;;;2.73;;
4519;SDS011;2272;49.226;8.108;2023-03-15T11:46:28;4.63;;;2.43;;
4519;SDS011;2272;49.226;8.108;2023-03-15T11:48:59;4.60;;;3.67;;
4519;SDS011;2272;49.226;8.108;2023-03-15T11:51:31;8.70;;;3.83;;
4519;SDS011;2272;49.226;8.108;2023-03-15T11:54:03;5.70;;;3.53;;
4519;SDS011;2272;49.226;8.108;2023-03-15T11:56:45;3.53;;;3.23;;
4519;SDS011;2272;49.226;8.108;2023-03-15T11:59:15;4.20;;;3.80;;
4519;SDS011;2272;49.226;8.108;2023-03-15T12:01:44;3.57;;;3.37;;
4519;SDS011;2272;49.226;8.108;2023-03-15T12:04:27;4.63;;;3.87;;
4519;SDS011;2272;49.226;8.108;2023-03-15T12:07:09;6.37;;;3.97;;
4519;SDS011;2272;49.226;8.108;2023-03-15T12:09:53;6.50;;;3.77;;
4519;SDS011;2272;49.226;8.108;2023-03-15T12:12:35;5.80;;;3.63;;
4519;SDS011;2272;49.226;8.108;2023-03-15T12:15:04;3.93;;;3.60;;
4519;SDS011;2272;49.226;8.108;2023-03-15T12:17:43;8.13;;;4.50;;
4519;SDS011;2272;49.226;8.108;2023-03-15T12:20:19;3.97;;;3.63;;
4519;SDS011;2272;49.226;8.108;2023-03-15T12:22:52;4.43;;;3.50;;
4519;SDS011;2272;49.226;8.108;2023-03-15T12:25:30;8.60;;;4.10;;
4519;SDS011;2272;49.226;8.108;2023-03-15T12:28:03;4.53;;;4.13;;
4519;SDS011;2272;49.226;8.108;2023-03-15T12:30:34;6.80;;;3.87;;
4519;SDS011;2272;49.226;8.108;2023-03-15T12:33:04;5.00;;;4.40;;
4519;SDS011;2272;49.226;8.108;2023-03-15T12:35:40;3.80;;;3.10;;
4519;SDS011;2272;49.226;8.108;2023-03-15T12:38:09;3.40;;;3.20;;
4519;SDS011;2272;49.226;8.108;2023-03-15T12:40:46;3.40;;;3.20;;
4519;SDS011;2272;49.226;8.108;2023-03-15T12:43:29;3.57;;;3.33;;
4519;SDS011;2272;49.226;8.108;2023-03-15T12:46:01;2.87;;;2.77;;
4519;SDS011;2272;49.226;8.108;2023-03-15T12:48:31;3.40;;;3.10;;
4519;SDS011;2272;49.226;8.108;2023-03-15T12:50:59;3.47;;;3.20;;
4519;SDS011;2272;49.226;8.108;2023-03-15T12:53:37;3.50;;;3.30;;
4519;SDS011;2272;49.226;8.108;2023-03-15T12:59:02;1.97;;;1.87;;
4519;SDS011;2272;49.226;8.108;2023-03-15T13:01:35;9.97;;;2.43;;
4519;SDS011;2272;49.226;8.108;2023-03-15T13:04:02;2.97;;;1.97;;
4519;SDS011;2272;49.226;8.108;2023-03-15T13:06:48;2.20;;;2.10;;
4519;SDS011;2272;49.226;8.108;2023-03-15T13:09:24;2.57;;;2.37;;
4519;SDS011;2272;49.226;8.108;2023-03-15T13:12:10;3.90;;;2.23;;
4519;SDS011;2272;49.226;8.108;2023-03-15T13:14:43;2.07;;;1.97;;
4519;SDS011;2272;49.226;8.108;2023-03-15T13:17:23;1.90;;;1.70;;
4519;SDS011;2272;49.226;8.108;2023-03-15T13:20:02;2.70;;;2.40;;
4519;SDS011;2272;49.226;8.108;2023-03-15T13:22:41;1.60;;;1.50;;
4519;SDS011;2272;49.226;8.108;2023-03-15T13:25:16;5.97;;;3.03;;
4519;SDS011;2272;49.226;8.108;2023-03-15T13:27:50;2.07;;;1.83;;
4519;SDS011;2272;49.226;8.108;2023-03-15T13:30:29;2.20;;;2.10;;
4519;SDS011;2272;49.226;8.108;2023-03-15T13:33:03;2.97;;;2.83;;
4519;SDS011;2272;49.226;8.108;2023-03-15T13:35:39;1.90;;;1.50;;
4519;SDS011;2272;49.226;8.108;2023-03-15T13:38:08;2.70;;;2.20;;
4519;SDS011;2272;49.226;8.108;2023-03-15T13:40:46;2.13;;;2.03;;
4519;SDS011;2272;49.226;8.108;2023-03-15T13:43:13;1.93;;;1.87;;
4519;SDS011;2272;49.226;8.108;2023-03-15T13:45:42;1.70;;;1.70;;
4519;SDS011;2272;49.226;8.108;2023-03-15T13:48:09;1.50;;;1.50;;
4519;SDS011;2272;49.226;8.108;2023-03-15T13:50:37;1.40;;;1.30;;
4519;SDS011;2272;49.226;8.108;2023-03-15T13:53:04;1.83;;;1.10;;
4519;SDS011;2272;49.226;8.108;2023-03-15T13:55:31;1.10;;;1.10;;
4519;SDS011;2272;49.226;8.108;2023-03-15T13:58:04;1.60;;;1.50;;
4519;SDS011;2272;49.226;8.108;2023-03-15T14:00:31;1.70;;;1.27;;
4519;SDS011;2272;49.226;8.108;2023-03-15T14:03:02;3.33;;;1.57;;
4519;SDS011;2272;49.226;8.108;2023-03-15T14:05:32;1.27;;;1.00;;
4519;SDS011;2272;49.226;8.108;2023-03-15T14:08:14;1.00;;;1.00;;
4519;SDS011;2272;49.226;8.108;2023-03-15T14:10:56;0.90;;;0.90;;
4519;SDS011;2272;49.226;8.108;2023-03-15T14:13:25;1.60;;;0.93;;
4519;SDS011;2272;49.226;8.108;2023-03-15T14:15:57;2.77;;;1.60;;
4519;SDS011;2272;49.226;8.108;2023-03-15T14:18:30;1.20;;;1.10;;
4519;SDS011;2272;49.226;8.108;2023-03-15T14:20:59;3.33;;;1.00;;
4519;SDS011;2272;49.226;8.108;2023-03-15T14:23:29;1.27;;;1.23;;
4519;SDS011;2272;49.226;8.108;2023-03-15T14:26:00;1.27;;;1.27;;
4519;SDS011;2272;49.226;8.108;2023-03-15T14:28:32;2.40;;;0.90;;
4519;SDS011;2272;49.226;8.108;2023-03-15T14:30:59;1.17;;;1.17;;
4519;SDS011;2272;49.226;8.108;2023-03-15T14:33:30;2.60;;;1.10;;
4519;SDS011;2272;49.226;8.108;2023-03-15T14:35:59;1.83;;;1.37;;
4519;SDS011;2272;49.226;8.108;2023-03-15T14:38:32;1.53;;;1.20;;
4519;SDS011;2272;49.226;8.108;2023-03-15T14:41:10;1.63;;;1.20;;
4519;SDS011;2272;49.226;8.108;2023-03-15T14:43:44;4.47;;;1.60;;
4519;SDS011;2272;49.226;8.108;2023-03-15T14:46:10;2.40;;;1.30;;
4519;SDS011;2272;49.226;8.108;2023-03-15T14:48:39;1.27;;;1.10;;
4519;SDS011;2272;49.226;8.108;2023-03-15T14:51:06;1.00;;;1.00;;
4519;SDS011;2272;49.226;8.108;2023-03-15T14:53:39;1.27;;;0.80;;
4519;SDS011;2272;49.226;8.108;2023-03-15T14:56:06;2.03;;;0.93;;
4519;SDS011;2272;49.226;8.108;2023-03-15T14:58:34;0.87;;;0.87;;
4519;SDS011;2272;49.226;8.108;2023-03-15T15:01:01;1.07;;;1.07;;
4519;SDS011;2272;49.226;8.108;2023-03-15T15:03:30;2.10;;;1.23;;
4519;SDS011;2272;49.226;8.108;2023-03-15T15:06:00;1.30;;;1.30;;
4519;SDS011;2272;49.226;8.108;2023-03-15T15:08:28;3.83;;;1.17;;
4519;SDS011;2272;49.226;8.108;2023-03-15T15:10:57;2.60;;;1.87;;
4519;SDS011;2272;49.226;8.108;2023-03-15T15:13:25;1.83;;;1.73;;
4519;SDS011;2272;49.226;8.108;2023-03-15T15:15:53;1.20;;;1.10;;
4519;SDS011;2272;49.226;8.108;2023-03-15T15:18:21;1.30;;;1.20;;
4519;SDS011;2272;49.226;8.108;2023-03-15T15:20:49;4.20;;;1.30;;
4519;SDS011;2272;49.226;8.108;2023-03-15T15:23:21;3.33;;;1.33;;
4519;SDS011;2272;49.226;8.108;2023-03-15T15:25:51;1.07;;;0.93;;
4519;SDS011;2272;49.226;8.108;2023-03-15T15:28:19;1.30;;;0.87;;
4519;SDS011;2272;49.226;8.108;2023-03-15T15:30:46;1.63;;;1.00;;